Time;durP1;ratioP1;P1;durP2;ratioP2;P2;SDS_P1;SDS_P2;PMS_P1;PMS_P2;Temp;Humidity;BMP_temperature;BMP_pressure;BME280_temperature;BME280_humidity;BME280_pressure;Samples;Min_cycle;Max_cycle;Signal;HPM_P1;HPM_P2
2022/04/19 00:00:36;;;;;;;3.27;2.60;;;13.30;50.20;;;;;;5094904;28;20454;-72
2022/04/19 00:03:03;;;;;;;3.30;2.60;;;13.20;50.20;;;;;;5094882;28;20452;-72
2022/04/19 00:05:30;;;;;;;2.60;2.40;;;13.20;50.40;;;;;;5094850;28;20451;-72
2022/04/19 00:07:57;;;;;;;3.43;2.50;;;13.10;50.50;;;;;;5094384;28;20974;-72
2022/04/19 00:10:26;;;;;;;6.63;2.97;;;13.10;50.50;;;;;;5094488;28;20540;-72
2022/04/19 00:12:53;;;;;;;3.17;2.97;;;13.10;50.70;;;;;;5094730;28;20521;-72
2022/04/19 00:15:21;;;;;;;3.80;3.37;;;13.10;50.70;;;;;;5094758;28;20568;-72
2022/04/19 00:17:49;;;;;;;3.33;2.73;;;13.00;50.60;;;;;;5094790;28;20484;-72
2022/04/19 00:20:18;;;;;;;2.80;2.60;;;12.90;50.80;;;;;;5095170;28;20444;-72
2022/04/19 00:22:45;;;;;;;3.03;2.73;;;12.90;50.90;;;;;;5094740;28;20990;-72
2022/04/19 00:25:12;;;;;;;5.23;3.10;;;12.80;51.00;;;;;;5094579;28;20451;-72
2022/04/19 00:27:38;;;;;;;4.97;3.50;;;12.70;51.10;;;;;;5094659;28;20455;-72
2022/04/19 00:30:06;;;;;;;3.43;2.97;;;12.70;51.40;;;;;;5094396;28;20455;-72
2022/04/19 00:32:33;;;;;;;4.03;3.13;;;12.60;51.50;;;;;;5094897;28;20472;-72
2022/04/19 00:35:02;;;;;;;4.10;3.80;;;12.50;51.40;;;;;;5094206;28;20982;-72
2022/04/19 00:37:28;;;;;;;3.43;3.13;;;12.50;51.40;;;;;;5094043;28;20970;-72
2022/04/19 00:39:58;;;;;;;3.60;3.30;;;12.50;51.50;;;;;;5093866;28;20970;-72
2022/04/19 00:42:27;;;;;;;4.27;3.50;;;12.50;51.40;;;;;;5094230;28;20472;-72
2022/04/19 00:44:54;;;;;;;5.83;3.47;;;12.50;51.40;;;;;;5094218;28;20440;-72
2022/04/19 00:47:22;;;;;;;3.60;3.30;;;12.50;51.50;;;;;;5094062;28;20443;-72
2022/04/19 00:49:49;;;;;;;3.30;3.00;;;12.50;51.40;;;;;;5094016;28;20452;-72
2022/04/19 00:52:17;;;;;;;4.37;3.30;;;12.50;51.50;;;;;;5093947;28;20495;-72
2022/04/19 00:54:47;;;;;;;4.70;3.57;;;12.40;51.60;;;;;;5093996;28;20440;-72
2022/04/19 00:57:15;;;;;;;4.27;3.30;;;12.40;51.70;;;;;;5093538;28;20498;-72
2022/04/19 00:59:43;;;;;;;4.10;3.00;;;12.30;51.70;;;;;;5093896;28;20506;-72
2022/04/19 01:02:10;;;;;;;3.90;3.20;;;12.30;51.90;;;;;;5094022;28;20920;-72
2022/04/19 01:04:37;;;;;;;3.40;3.10;;;12.20;52.00;;;;;;5093803;28;20529;-72
2022/04/19 01:07:04;;;;;;;3.87;3.00;;;12.20;52.10;;;;;;5094055;28;20509;-72
2022/04/19 01:09:33;;;;;;;3.70;3.40;;;12.10;52.10;;;;;;5093652;28;20450;-72
2022/04/19 01:14:45;;;;;;;3.90;3.13;;;12.10;52.20;;;;;;5094198;28;20889;-72
2022/04/19 01:17:13;;;;;;;3.10;2.90;;;12.10;52.30;;;;;;5093449;28;20947;-72
2022/04/19 01:19:40;;;;;;;3.10;2.80;;;12.10;52.50;;;;;;5093881;28;20475;-72
2022/04/19 01:22:12;;;;;;;3.70;3.30;;;12.00;52.40;;;;;;5093543;28;20467;-72
2022/04/19 01:24:40;;;;;;;3.47;3.17;;;12.00;52.50;;;;;;5093997;28;20436;-72
2022/04/19 01:27:09;;;;;;;7.30;3.40;;;11.90;52.50;;;;;;5093740;28;20451;-71
2022/04/19 01:29:36;;;;;;;6.90;3.87;;;11.90;52.70;;;;;;5093676;28;20447;-71
2022/04/19 01:32:04;;;;;;;3.73;3.33;;;11.80;53.00;;;;;;5093430;28;20494;-71
2022/04/19 01:34:31;;;;;;;3.40;3.10;;;11.70;53.20;;;;;;5093732;28;20455;-71
2022/04/19 01:36:58;;;;;;;5.00;3.53;;;11.60;53.10;;;;;;5093196;28;20935;-71
2022/04/19 01:42:08;;;;;;;4.33;3.40;;;11.50;53.50;;;;;;5092890;28;20811;-71
2022/04/19 01:44:36;;;;;;;3.67;3.37;;;11.50;53.70;;;;;;5093015;28;20978;-71
2022/04/19 01:47:04;;;;;;;4.73;2.73;;;11.40;53.70;;;;;;5093355;28;20546;-71
2022/04/19 01:49:31;;;;;;;4.23;3.60;;;11.40;53.80;;;;;;5093378;28;20447;-71
2022/04/19 01:51:58;;;;;;;3.53;3.20;;;11.40;53.80;;;;;;5093170;28;20510;-71
2022/04/19 01:54:26;;;;;;;4.07;3.50;;;11.40;53.80;;;;;;5093493;28;20455;-71
2022/04/19 01:56:53;;;;;;;3.80;3.37;;;11.40;53.70;;;;;;5093292;28;20459;-71
2022/04/19 01:59:20;;;;;;;3.47;3.17;;;11.40;53.80;;;;;;5093311;28;20459;-71
2022/04/19 02:01:47;;;;;;;4.17;3.80;;;11.40;53.70;;;;;;5093218;28;20486;-71
2022/04/19 02:04:14;;;;;;;3.53;2.97;;;11.40;53.80;;;;;;5092819;28;20815;-71
2022/04/19 02:06:41;;;;;;;3.67;3.27;;;11.40;53.80;;;;;;5093298;28;20452;-71
2022/04/19 02:09:08;;;;;;;7.80;4.13;;;11.40;53.70;;;;;;5092810;28;20452;-71
2022/04/19 02:11:37;;;;;;;5.70;3.53;;;11.40;53.90;;;;;;5097508;28;20514;-71
2022/04/19 02:14:04;;;;;;;4.37;3.97;;;11.40;54.00;;;;;;5097005;28;20455;-71
2022/04/19 02:16:31;;;;;;;3.50;3.20;;;11.40;54.10;;;;;;5096968;28;20860;-71
2022/04/19 02:18:59;;;;;;;4.93;4.07;;;11.30;53.90;;;;;;5096807;28;20497;-71
2022/04/19 02:21:25;;;;;;;3.93;3.63;;;11.30;54.10;;;;;;5096599;28;20991;-71
2022/04/19 02:23:52;;;;;;;3.10;2.90;;;11.20;54.10;;;;;;5096923;28;20443;-71
2022/04/19 02:26:20;;;;;;;4.30;3.30;;;11.20;54.10;;;;;;5096850;28;20443;-71
2022/04/19 02:28:48;;;;;;;6.33;3.10;;;11.20;54.30;;;;;;5096688;28;20503;-71
2022/04/19 02:31:15;;;;;;;6.43;3.40;;;11.10;54.40;;;;;;5096565;28;20516;-71
2022/04/19 02:33:42;;;;;;;3.90;2.83;;;11.10;54.40;;;;;;5097355;28;20494;-71
2022/04/19 02:36:09;;;;;;;4.00;3.53;;;11.00;54.50;;;;;;5096505;28;20447;-71
2022/04/19 02:38:37;;;;;;;3.10;2.80;;;11.00;54.60;;;;;;5096627;28;20454;-71
2022/04/19 02:41:04;;;;;;;3.47;3.17;;;10.90;54.70;;;;;;5096633;28;20551;-71
2022/04/19 02:43:31;;;;;;;4.80;2.80;;;10.80;55.00;;;;;;5096498;28;20455;-71
2022/04/19 02:45:59;;;;;;;3.40;3.07;;;10.80;55.20;;;;;;5096337;28;20516;-71
2022/04/19 02:48:28;;;;;;;3.47;3.17;;;10.80;55.40;;;;;;5096349;28;20525;-71
2022/04/19 02:50:55;;;;;;;5.07;3.90;;;10.70;55.50;;;;;;5095876;28;20586;-71
2022/04/19 02:53:21;;;;;;;3.97;3.57;;;10.70;55.50;;;;;;5096065;28;20813;-71
2022/04/19 02:55:48;;;;;;;5.00;3.77;;;10.70;55.90;;;;;;5096921;28;20451;-71
2022/04/19 02:58:15;;;;;;;3.47;3.17;;;10.60;56.00;;;;;;5096202;28;20497;-71
2022/04/19 03:00:42;;;;;;;3.60;3.30;;;10.50;56.30;;;;;;5095788;28;21012;-71
2022/04/19 03:03:10;;;;;;;4.30;3.50;;;10.50;56.50;;;;;;5095783;28;20980;-71
2022/04/19 03:05:40;;;;;;;5.17;3.13;;;10.50;56.60;;;;;;5095928;28;20452;-71
2022/04/19 03:08:07;;;;;;;4.10;3.00;;;10.50;56.80;;;;;;5095930;28;20460;-71
2022/04/19 03:10:34;;;;;;;4.53;3.80;;;10.50;56.80;;;;;;5095727;28;20454;-71
2022/04/19 03:13:01;;;;;;;3.43;3.13;;;10.50;56.80;;;;;;5096174;28;20490;-71
2022/04/19 03:15:28;;;;;;;4.00;3.00;;;10.50;56.80;;;;;;5096381;28;20547;-71
2022/04/19 03:17:55;;;;;;;4.20;3.80;;;10.50;56.80;;;;;;5096089;28;20447;-71
2022/04/19 03:20:23;;;;;;;5.40;4.07;;;10.50;56.80;;;;;;5095352;28;20447;-71
2022/04/19 03:28:18;;;;;;;3.93;3.43;;;10.50;56.80;;;;;;5095701;28;20403;-71
2022/04/19 03:30:46;;;;;;;7.23;4.90;;;10.50;57.00;;;;;;5095356;28;20447;-71
2022/04/19 03:33:12;;;;;;;3.80;3.37;;;10.50;57.10;;;;;;5095186;28;20457;-71
2022/04/19 03:35:41;;;;;;;4.80;4.30;;;10.40;57.00;;;;;;5096002;28;20451;-71
2022/04/19 03:38:08;;;;;;;4.43;2.90;;;10.40;57.20;;;;;;5095410;28;20448;-71
2022/04/19 03:40:36;;;;;;;4.23;3.83;;;10.40;57.30;;;;;;5095315;28;20495;-71
2022/04/19 03:43:07;;;;;;;4.10;3.43;;;10.30;57.40;;;;;;5094913;28;20452;-71
2022/04/19 03:45:34;;;;;;;5.10;3.90;;;10.30;57.50;;;;;;5095021;28;20990;-71
2022/04/19 03:48:00;;;;;;;3.70;3.40;;;10.30;57.70;;;;;;5095161;28;20447;-71
2022/04/19 03:50:27;;;;;;;4.60;4.03;;;10.20;57.70;;;;;;5095202;28;20448;-71
2022/04/19 03:52:56;;;;;;;4.10;3.80;;;10.20;57.80;;;;;;5095159;28;20487;-71
2022/04/19 03:55:23;;;;;;;3.93;3.53;;;10.20;58.00;;;;;;5095107;28;20455;-71
2022/04/19 03:57:50;;;;;;;3.70;3.30;;;10.10;58.00;;;;;;5094952;28;20530;-71
2022/04/19 04:00:17;;;;;;;4.77;4.27;;;10.00;58.20;;;;;;5095024;28;20527;-71
2022/04/19 04:02:44;;;;;;;3.30;3.07;;;9.90;59.00;;;;;;5094663;28;20468;-71
2022/04/19 04:05:11;;;;;;;4.07;3.30;;;9.90;59.40;;;;;;5095013;28;20446;-71
2022/04/19 04:07:38;;;;;;;5.53;3.47;;;9.80;59.60;;;;;;5094922;28;20447;-71
2022/04/19 04:10:07;;;;;;;4.37;3.50;;;9.70;60.10;;;;;;5094701;28;20831;-71
2022/04/19 04:12:34;;;;;;;3.83;3.50;;;9.70;60.50;;;;;;5094424;28;20497;-71
2022/04/19 04:15:02;;;;;;;3.70;3.40;;;9.60;60.70;;;;;;5094352;28;20455;-71
2022/04/19 04:17:28;;;;;;;4.07;3.67;;;9.60;60.80;;;;;;5094289;28;20451;-71
2022/04/19 04:19:58;;;;;;;3.80;3.00;;;9.60;60.90;;;;;;5095080;28;20457;-71
2022/04/19 04:22:25;;;;;;;4.00;3.60;;;9.50;60.90;;;;;;5094419;28;20460;-71
2022/04/19 04:24:51;;;;;;;4.10;3.70;;;9.50;61.20;;;;;;5094559;28;20464;-71
2022/04/19 04:27:19;;;;;;;5.40;4.40;;;9.50;61.50;;;;;;5094167;28;20935;-71
2022/04/19 04:29:46;;;;;;;4.23;3.83;;;9.50;61.70;;;;;;5094139;28;20818;-71
2022/04/19 04:32:13;;;;;;;5.10;4.60;;;9.50;61.40;;;;;;5093562;28;20491;-71
2022/04/19 04:34:40;;;;;;;4.47;3.93;;;9.60;61.20;;;;;;5094068;28;20477;-71
2022/04/19 04:37:06;;;;;;;4.83;4.07;;;9.60;61.30;;;;;;5094327;28;20452;-71
2022/04/19 04:39:33;;;;;;;6.73;4.57;;;9.60;61.60;;;;;;5093086;28;20447;-71
2022/04/19 04:42:00;;;;;;;5.10;4.53;;;9.70;62.00;;;;;;5094271;28;20486;-71
2022/04/19 04:44:28;;;;;;;5.10;4.30;;;9.70;62.30;;;;;;5094255;28;20451;-71
2022/04/19 04:49:40;;;;;;;5.53;4.53;;;9.70;62.40;;;;;;5094124;28;20472;-71
2022/04/19 04:52:09;;;;;;;5.23;4.70;;;9.80;62.90;;;;;;5093835;28;20495;-71
2022/04/19 04:54:36;;;;;;;5.53;4.90;;;9.80;62.70;;;;;;5093980;28;20459;-71
2022/04/19 04:57:03;;;;;;;5.80;4.43;;;9.80;62.50;;;;;;5093829;28;20945;-71
2022/04/19 04:59:31;;;;;;;11.50;5.90;;;9.80;62.60;;;;;;5093966;28;20453;-71
2022/04/19 05:01:58;;;;;;;7.20;4.73;;;9.80;62.80;;;;;;5093710;28;20846;-71
2022/04/19 05:04:25;;;;;;;4.43;4.03;;;9.80;63.10;;;;;;5093845;28;20450;-71
2022/04/19 05:06:52;;;;;;;5.03;4.53;;;9.70;62.80;;;;;;5094007;28;20428;-71
2022/04/19 05:09:19;;;;;;;4.30;3.90;;;9.60;62.90;;;;;;5093849;28;20584;-71
2022/04/19 05:11:46;;;;;;;5.13;4.57;;;9.60;63.40;;;;;;5093538;28;20523;-70
2022/04/19 05:14:13;;;;;;;5.20;4.50;;;9.60;64.00;;;;;;5093845;28;20451;-71
2022/04/19 05:16:42;;;;;;;4.60;4.20;;;9.50;64.60;;;;;;5093769;28;20490;-71
2022/04/19 05:19:10;;;;;;;5.30;4.33;;;9.50;65.20;;;;;;5093774;28;20485;-70
2022/04/19 05:21:38;;;;;;;4.53;4.13;;;9.50;65.90;;;;;;5093619;28;20533;-70
2022/04/19 05:24:06;;;;;;;6.53;5.77;;;9.50;66.20;;;;;;5093315;28;20871;-71
2022/04/19 05:26:33;;;;;;;5.70;4.70;;;9.50;66.50;;;;;;5093575;28;20454;-71
2022/04/19 05:29:00;;;;;;;5.60;5.10;;;9.50;66.70;;;;;;5093680;28;20452;-71
2022/04/19 05:31:27;;;;;;;5.37;4.37;;;9.60;66.90;;;;;;5093521;28;20471;-71
2022/04/19 05:33:55;;;;;;;6.60;4.43;;;9.60;67.30;;;;;;5093268;28;20431;-71
2022/04/19 05:36:23;;;;;;;5.13;4.53;;;9.70;67.60;;;;;;5093454;28;20454;-71
2022/04/19 05:38:52;;;;;;;5.33;4.80;;;9.60;67.90;;;;;;5093408;28;20458;-70
2022/04/19 05:41:19;;;;;;;4.40;4.10;;;9.70;68.60;;;;;;5093333;28;20518;-71
2022/04/19 05:43:47;;;;;;;5.77;4.70;;;9.70;69.00;;;;;;5094369;28;20472;-71
2022/04/19 05:46:16;;;;;;;7.70;5.67;;;9.80;69.50;;;;;;5097515;28;20447;-70
2022/04/19 05:48:42;;;;;;;6.93;6.23;;;9.80;69.70;;;;;;5097607;28;20447;-71
2022/04/19 05:51:11;;;;;;;5.63;5.03;;;9.90;70.10;;;;;;5097453;28;20471;-71
2022/04/19 05:53:38;;;;;;;6.53;5.83;;;9.90;70.40;;;;;;5097406;28;20902;-70
2022/04/19 05:56:05;;;;;;;7.50;5.77;;;10.00;69.70;;;;;;5097204;28;20457;-71
2022/04/19 05:58:32;;;;;;;6.80;6.20;;;10.00;69.90;;;;;;5097213;28;20466;-71
2022/04/19 06:01:01;;;;;;;7.30;6.00;;;10.10;70.30;;;;;;5097192;28;20464;-71
2022/04/19 06:06:14;;;;;;;8.00;6.63;;;10.20;70.80;;;;;;5097203;28;20499;-71
2022/04/19 06:08:41;;;;;;;9.80;6.70;;;10.20;70.80;;;;;;5097044;28;20455;-71
2022/04/19 06:11:11;;;;;;;10.60;6.90;;;10.30;71.10;;;;;;5096655;28;20471;-71
2022/04/19 06:13:38;;;;;;;7.00;6.40;;;10.40;71.50;;;;;;5096329;28;20521;-71
2022/04/19 06:16:05;;;;;;;7.70;7.00;;;10.50;71.90;;;;;;5096800;28;20455;-71
2022/04/19 06:18:33;;;;;;;8.87;7.23;;;10.60;72.00;;;;;;5096865;28;20853;-71
2022/04/19 06:21:00;;;;;;;9.23;6.00;;;10.70;72.30;;;;;;5096922;28;20463;-71
2022/04/19 06:23:28;;;;;;;10.17;7.30;;;10.70;72.60;;;;;;5096802;28;20451;-71
2022/04/19 06:25:54;;;;;;;8.20;7.33;;;10.90;71.80;;;;;;5096835;28;20859;-70
2022/04/19 06:28:21;;;;;;;12.70;7.07;;;11.00;72.10;;;;;;5096972;28;20447;-71
2022/04/19 06:30:48;;;;;;;8.53;6.60;;;11.10;72.10;;;;;;5096434;28;20942;-71
2022/04/19 06:33:15;;;;;;;7.07;6.37;;;11.20;71.90;;;;;;5096621;28;20850;-70
2022/04/19 06:35:42;;;;;;;14.43;7.43;;;11.20;69.60;;;;;;5096317;28;20443;-71
2022/04/19 06:38:10;;;;;;;7.10;5.90;;;11.30;68.90;;;;;;5096324;28;20951;-70
2022/04/19 06:40:38;;;;;;;9.97;6.70;;;11.40;68.60;;;;;;5096424;28;20475;-70
2022/04/19 06:43:05;;;;;;;6.73;6.13;;;11.50;68.00;;;;;;5096388;28;20451;-70
2022/04/19 06:45:32;;;;;;;12.33;6.40;;;11.50;68.10;;;;;;5096350;28;20452;-70
2022/04/19 06:47:59;;;;;;;6.97;6.30;;;11.70;69.10;;;;;;5096448;28;20543;-71
2022/04/19 06:50:26;;;;;;;8.27;5.90;;;11.80;69.30;;;;;;5096473;28;20456;-71
2022/04/19 06:52:53;;;;;;;9.20;6.70;;;12.00;69.20;;;;;;5096085;28;20483;-71
2022/04/19 06:55:20;;;;;;;8.23;6.10;;;12.20;69.40;;;;;;5095581;28;20446;-71
2022/04/19 06:57:49;;;;;;;6.73;6.10;;;12.30;66.20;;;;;;5096263;28;20486;-71
2022/04/19 07:00:18;;;;;;;6.87;6.20;;;12.50;65.90;;;;;;5096204;28;20444;-70
2022/04/19 07:02:45;;;;;;;6.20;5.60;;;12.60;65.20;;;;;;5096046;28;20517;-70
2022/04/19 07:05:12;;;;;;;6.43;5.43;;;12.80;63.80;;;;;;5096027;28;20455;-70
2022/04/19 07:07:42;;;;;;;6.63;6.03;;;12.90;63.80;;;;;;5095917;28;20458;-70
2022/04/19 07:10:11;;;;;;;9.37;5.63;;;13.10;63.10;;;;;;5095743;28;20466;-71
2022/04/19 07:12:38;;;;;;;7.53;5.27;;;13.30;62.50;;;;;;5095816;28;20484;-71
2022/04/19 07:15:08;;;;;;;8.70;5.50;;;13.40;61.90;;;;;;5095949;28;20815;-70
2022/04/19 07:17:38;;;;;;;6.53;5.03;;;13.60;60.40;;;;;;5096073;28;20501;-70
2022/04/19 07:28:19;;;;;;;7.60;6.03;;;14.50;57.50;;;;;;5095893;28;20898;-71
2022/04/19 07:30:47;;;;;;;7.20;6.50;;;14.70;56.60;;;;;;5095522;28;20451;-71
2022/04/19 07:33:16;;;;;;;11.97;5.63;;;14.90;56.70;;;;;;5095396;28;20487;-71
2022/04/19 07:35:43;;;;;;;7.00;6.00;;;15.10;56.00;;;;;;5095132;28;21026;-71
2022/04/19 07:38:10;;;;;;;8.73;5.50;;;15.30;55.50;;;;;;5095577;28;20451;-71
2022/04/19 07:40:37;;;;;;;7.17;6.10;;;15.50;54.10;;;;;;5095440;28;20444;-71
2022/04/19 07:43:04;;;;;;;7.93;6.20;;;15.80;53.50;;;;;;5094988;28;20947;-71
2022/04/19 07:45:31;;;;;;;7.53;6.40;;;15.90;53.70;;;;;;5095326;28;20439;-71
2022/04/19 07:47:59;;;;;;;10.13;7.20;;;16.10;52.70;;;;;;5094964;28;20452;-71
2022/04/19 07:50:26;;;;;;;8.17;5.50;;;16.40;51.20;;;;;;5095201;28;20444;-71
2022/04/19 07:52:52;;;;;;;12.73;6.90;;;16.50;50.10;;;;;;5095022;28;20475;-71
2022/04/19 07:55:19;;;;;;;8.33;6.17;;;16.70;49.70;;;;;;5094849;28;20851;-71
2022/04/19 07:57:46;;;;;;;6.37;5.77;;;16.90;50.40;;;;;;5094787;28;20455;-71
2022/04/19 08:00:14;;;;;;;8.70;6.30;;;17.10;49.70;;;;;;5095379;28;20451;-71
2022/04/19 08:02:42;;;;;;;5.70;5.10;;;17.30;48.40;;;;;;5095608;28;20464;-71
2022/04/19 08:05:10;;;;;;;8.30;5.37;;;17.60;47.60;;;;;;5094729;28;21004;-71
2022/04/19 08:07:37;;;;;;;13.07;6.57;;;17.80;47.00;;;;;;5094899;28;20455;-71
2022/04/19 08:10:06;;;;;;;6.37;5.70;;;18.10;46.20;;;;;;5094456;28;20464;-71
2022/04/19 08:12:33;;;;;;;11.07;6.80;;;18.30;45.60;;;;;;5094643;28;20494;-71
2022/04/19 08:14:59;;;;;;;10.80;6.50;;;18.50;44.70;;;;;;5094878;28;20452;-71
2022/04/19 08:17:26;;;;;;;11.10;6.30;;;18.70;44.20;;;;;;5094680;28;20454;-71
2022/04/19 08:19:56;;;;;;;9.00;6.93;;;18.90;43.70;;;;;;5094584;28;20454;-71
2022/04/19 08:22:24;;;;;;;8.50;6.87;;;19.00;43.10;;;;;;5094423;28;20544;-71
2022/04/19 08:24:50;;;;;;;8.63;7.30;;;19.20;43.70;;;;;;5094303;28;20455;-71
2022/04/19 08:27:18;;;;;;;11.50;7.03;;;19.50;42.50;;;;;;5094379;28;20537;-71
2022/04/19 08:29:45;;;;;;;10.30;8.10;;;19.60;41.90;;;;;;5094406;28;20444;-71
2022/04/19 08:32:12;;;;;;;9.07;6.40;;;19.80;41.60;;;;;;5094250;28;20486;-71
2022/04/19 08:34:39;;;;;;;10.80;7.97;;;20.00;41.30;;;;;;5094274;28;20623;-71
2022/04/19 08:37:06;;;;;;;8.73;7.07;;;20.20;40.90;;;;;;5094211;28;20930;-71
2022/04/19 08:39:34;;;;;;;9.87;7.50;;;20.40;40.30;;;;;;5094223;28;20448;-71
2022/04/19 08:42:02;;;;;;;12.03;8.70;;;20.60;40.50;;;;;;5094040;28;20530;-71
2022/04/19 08:44:28;;;;;;;7.90;7.10;;;20.80;38.20;;;;;;5094008;28;20450;-71
2022/04/19 08:46:56;;;;;;;8.37;7.47;;;20.90;38.40;;;;;;5094101;28;20454;-72
2022/04/19 08:49:24;;;;;;;8.37;6.40;;;21.00;37.50;;;;;;5094064;28;20436;-72
2022/04/19 08:51:51;;;;;;;9.73;6.53;;;21.20;37.70;;;;;;5093988;28;20552;-71
2022/04/19 08:59:48;;;;;;;8.40;7.10;;;21.90;35.80;;;;;;5093649;28;20481;-72
2022/04/19 09:02:22;;;;;;;8.53;6.90;;;22.20;34.50;;;;;;5093475;28;20472;-72
2022/04/19 09:04:49;;;;;;;7.10;6.40;;;22.40;33.40;;;;;;5093838;28;20534;-72
2022/04/19 09:07:17;;;;;;;7.17;6.47;;;22.40;32.40;;;;;;5093674;28;20459;-72
2022/04/19 09:09:57;;;;;;;6.90;6.30;;;22.40;32.80;;;;;;5093736;28;20466;-72
2022/04/19 09:12:25;;;;;;;6.70;5.80;;;22.50;32.90;;;;;;5093351;28;20986;-72
2022/04/19 09:14:57;;;;;;;6.37;5.87;;;22.50;32.80;;;;;;5093662;28;20854;-72
2022/04/19 09:17:32;;;;;;;7.10;6.20;;;22.70;32.30;;;;;;5093750;28;20478;-72
2022/04/19 09:20:09;;;;;;;7.87;6.43;;;22.90;31.60;;;;;;5093278;28;20467;-72
2022/04/19 09:22:37;;;;;;;6.60;5.70;;;23.20;31.60;;;;;;5093256;28;20929;-72
2022/04/19 09:25:16;;;;;;;6.10;5.60;;;23.40;31.30;;;;;;5093682;28;20451;-72
2022/04/19 09:27:44;;;;;;;7.23;6.53;;;23.70;31.00;;;;;;5093499;28;20489;-72
2022/04/19 09:30:21;;;;;;;6.37;5.77;;;23.90;30.40;;;;;;5094082;28;20451;-72
2022/04/19 09:33:01;;;;;;;6.70;5.57;;;24.10;29.70;;;;;;5093267;28;20467;-72
2022/04/19 09:35:29;;;;;;;7.90;6.23;;;24.20;30.00;;;;;;5093450;28;20505;-72
2022/04/19 09:37:56;;;;;;;7.33;6.30;;;24.30;29.40;;;;;;5093273;28;20489;-72
2022/04/19 09:40:28;;;;;;;6.73;5.47;;;24.50;29.40;;;;;;5093449;28;20456;-72
2022/04/19 09:42:57;;;;;;;5.67;4.97;;;24.70;28.90;;;;;;5093464;28;20479;-72
2022/04/19 09:45:24;;;;;;;7.30;6.60;;;24.90;28.80;;;;;;5093406;28;20451;-72
2022/04/19 09:47:51;;;;;;;7.93;5.20;;;25.00;28.90;;;;;;5093317;28;20923;-72
2022/04/19 09:50:18;;;;;;;6.97;5.73;;;25.30;28.40;;;;;;5092976;28;20454;-72
2022/04/19 09:52:48;;;;;;;6.13;5.53;;;25.50;28.60;;;;;;5093219;28;20472;-72
2022/04/19 09:55:16;;;;;;;6.70;6.10;;;25.70;28.40;;;;;;5093908;28;20440;-72
2022/04/19 09:57:48;;;;;;;6.37;5.87;;;26.00;27.70;;;;;;5093291;28;20586;-72
2022/04/19 10:00:19;;;;;;;6.40;5.80;;;26.30;27.10;;;;;;5093512;28;20476;-72
2022/04/19 10:08:21;;;;;;;11.30;5.87;;;27.00;26.60;;;;;;5093660;28;20403;-72
2022/04/19 10:10:49;;;;;;;9.70;6.43;;;27.40;26.40;;;;;;5093031;28;20471;-72
2022/04/19 10:13:18;;;;;;;12.60;5.90;;;27.80;26.20;;;;;;5092772;28;20487;-72
2022/04/19 10:15:46;;;;;;;6.97;5.83;;;28.10;25.20;;;;;;5093171;28;20478;-72
2022/04/19 10:18:13;;;;;;;12.33;6.70;;;28.50;25.30;;;;;;5093259;28;20464;-72
2022/04/19 10:20:44;;;;;;;5.03;4.53;;;28.80;24.40;;;;;;5093131;28;20459;-72
2022/04/19 10:23:11;;;;;;;8.00;6.97;;;29.20;24.40;;;;;;5093007;28;20808;-72
2022/04/19 10:25:43;;;;;;;6.97;6.43;;;29.50;23.90;;;;;;5093130;28;20443;-72
2022/04/19 10:28:10;;;;;;;6.77;6.07;;;29.80;23.10;;;;;;5093106;28;20462;-69
2022/04/19 10:30:38;;;;;;;5.93;5.43;;;30.00;22.90;;;;;;5094039;28;20465;-69
2022/04/19 10:33:38;;;;;;;7.53;6.93;;;30.40;22.80;;;;;;5096377;28;20451;-69
2022/04/19 10:36:17;;;;;;;6.87;5.67;;;30.80;22.10;;;;;;5096331;28;20475;-70
2022/04/19 10:38:45;;;;;;;5.87;5.37;;;31.10;21.20;;;;;;5096585;28;20463;-70
2022/04/19 10:41:12;;;;;;;6.23;5.73;;;31.40;21.80;;;;;;5096542;28;20463;-70
2022/04/19 10:43:39;;;;;;;5.93;5.43;;;31.90;21.50;;;;;;5096238;28;20447;-70
2022/04/19 10:46:19;;;;;;;9.60;6.17;;;32.40;20.80;;;;;;5096553;28;20447;-71
2022/04/19 10:49:21;;;;;;;7.40;5.10;;;32.80;19.50;;;;;;5095957;28;20530;-71
2022/04/19 10:51:50;;;;;;;8.17;5.70;;;33.20;19.50;;;;;;5096360;28;20466;-71
2022/04/19 10:54:17;;;;;;;6.27;5.77;;;33.60;19.00;;;;;;5096131;28;20519;-72
2022/04/19 10:58:06;;;;;;;6.80;6.30;;;34.00;17.90;;;;;;5096157;28;20508;-70
2022/04/19 11:00:20;;;;;;;5.00;4.60;;;34.40;17.90;;;;;;5095885;28;20443;-69
2022/04/19 11:03:00;;;;;;;4.73;4.33;;;34.80;17.70;;;;;;5096384;28;20494;-70
2022/04/19 11:05:41;;;;;;;6.10;5.20;;;35.20;16.60;;;;;;5096178;28;20499;-70
2022/04/19 11:08:42;;;;;;;5.30;4.73;;;35.50;16.70;;;;;;5095959;28;20427;-70
2022/04/19 11:11:23;;;;;;;4.90;4.40;;;35.60;16.50;;;;;;5095615;28;20523;-70
2022/04/19 11:14:16;;;;;;;4.80;4.40;;;35.90;16.90;;;;;;5095985;28;20475;-70
2022/04/19 11:16:43;;;;;;;4.37;3.97;;;36.30;16.40;;;;;;5095792;28;20455;-70
2022/04/19 11:19:16;;;;;;;3.90;3.60;;;36.60;16.10;;;;;;5095836;28;20435;-70
2022/04/19 11:21:52;;;;;;;9.33;3.70;;;36.90;15.50;;;;;;5095412;28;20475;-70
2022/04/19 11:24:57;;;;;;;5.70;4.67;;;37.20;15.80;;;;;;5095601;28;20195;-70
2022/04/19 11:27:25;;;;;;;4.60;4.20;;;37.50;15.70;;;;;;5095551;28;20258;-70
2022/04/19 11:29:52;;;;;;;4.20;3.80;;;37.70;15.20;;;;;;5095493;28;20201;-70
2022/04/19 11:32:23;;;;;;;5.97;4.97;;;37.90;15.30;;;;;;5095611;28;20217;-70
2022/04/19 11:35:01;;;;;;;5.82;3.42;;;38.10;15.20;;;;;;5095512;28;20201;-70
2022/04/19 11:37:29;;;;;;;3.63;2.95;;;38.30;15.70;;;;;;5095475;28;20185;-71
2022/04/19 11:48:28;;;;;;;3.50;3.20;;;39.80;13.60;;;;;;5095567;28;20184;-71
2022/04/19 11:51:07;;;;;;;3.55;3.05;;;40.00;13.30;;;;;;5095944;28;20217;-71
2022/04/19 11:53:34;;;;;;;4.38;3.55;;;40.30;13.40;;;;;;5095290;28;20188;-71
2022/04/19 11:56:01;;;;;;;3.78;3.47;;;40.50;12.90;;;;;;5095386;28;20201;-71
2022/04/19 11:58:30;;;;;;;5.03;3.83;;;40.70;12.90;;;;;;5095176;28;20695;-71
2022/04/19 12:00:58;;;;;;;4.30;3.70;;;40.90;13.00;;;;;;5095445;28;20586;-71
2022/04/19 12:03:28;;;;;;;4.03;3.05;;;40.90;13.10;;;;;;5094987;28;20205;-71
2022/04/19 12:05:55;;;;;;;3.72;3.38;;;41.00;13.20;;;;;;5094677;28;20580;-71
2022/04/19 12:08:33;;;;;;;4.38;3.30;;;41.20;13.00;;;;;;5094812;28;20201;-71
2022/04/19 12:11:00;;;;;;;4.15;3.63;;;41.50;12.90;;;;;;5094504;28;20232;-71
2022/04/19 12:13:29;;;;;;;3.17;2.85;;;41.70;12.30;;;;;;5094836;28;20201;-71
2022/04/19 12:15:55;;;;;;;4.13;3.63;;;41.80;12.60;;;;;;5094704;28;20613;-71
2022/04/19 12:18:32;;;;;;;3.25;2.95;;;42.00;12.10;;;;;;5094736;28;20223;-71
2022/04/19 12:21:00;;;;;;;3.30;2.92;;;42.20;12.70;;;;;;5094465;28;20224;-71
2022/04/19 12:23:27;;;;;;;3.78;3.15;;;42.30;12.50;;;;;;5094988;28;20196;-71
2022/04/19 12:26:06;;;;;;;3.10;2.90;;;42.40;12.30;;;;;;5095413;28;20201;-71
2022/04/19 12:28:52;;;;;;;3.42;3.13;;;42.60;12.00;;;;;;5094597;28;20262;-71
2022/04/19 12:31:33;;;;;;;5.70;3.17;;;42.70;11.70;;;;;;5094430;28;20225;-71
2022/04/19 12:34:00;;;;;;;2.95;2.75;;;42.70;12.10;;;;;;5094021;28;20248;-71
2022/04/19 12:36:27;;;;;;;3.45;2.85;;;42.80;12.20;;;;;;5094483;28;20201;-71
2022/04/19 12:39:02;;;;;;;5.03;2.92;;;43.00;12.00;;;;;;5094347;28;20213;-71
2022/04/19 12:41:39;;;;;;;3.38;3.08;;;43.20;11.90;;;;;;5094065;28;20224;-71
2022/04/19 12:44:09;;;;;;;5.40;3.15;;;43.30;11.50;;;;;;5094431;28;20559;-71
2022/04/19 12:46:41;;;;;;;3.00;2.70;;;43.40;11.20;;;;;;5094454;28;20271;-71
2022/04/19 12:49:08;;;;;;;2.90;2.55;;;43.50;11.30;;;;;;5094221;28;20246;-71
2022/04/19 12:51:37;;;;;;;3.88;2.60;;;43.60;11.50;;;;;;5093973;28;20228;-71
2022/04/19 12:54:09;;;;;;;2.92;2.70;;;43.80;11.90;;;;;;5093019;28;20217;-71
2022/04/19 12:56:36;;;;;;;2.92;2.70;;;43.90;11.10;;;;;;5094064;28;20203;-71
2022/04/19 12:59:03;;;;;;;3.13;2.50;;;44.20;11.40;;;;;;5093930;28;20205;-70
2022/04/19 13:01:31;;;;;;;3.40;3.20;;;44.40;11.30;;;;;;5093817;28;20225;-71
2022/04/19 13:03:58;;;;;;;3.40;3.17;;;44.50;10.40;;;;;;5093794;28;20200;-71
2022/04/19 13:14:38;;;;;;;3.38;3.17;;;45.30;10.20;;;;;;5092350;28;20213;-72
2022/04/19 13:17:06;;;;;;;6.45;3.35;;;45.50;10.00;;;;;;5093595;28;20205;-72
2022/04/19 13:19:34;;;;;;;3.08;2.85;;;45.70;9.90;;;;;;5093679;28;20258;-71
2022/04/19 13:22:01;;;;;;;3.28;2.70;;;45.80;9.80;;;;;;5093626;28;20257;-72
2022/04/19 13:24:28;;;;;;;3.63;2.65;;;45.90;9.80;;;;;;5093575;28;20280;-72
2022/04/19 13:26:55;;;;;;;3.92;3.63;;;46.10;10.00;;;;;;5093723;28;20212;-72
2022/04/19 13:29:22;;;;;;;3.65;2.95;;;46.20;8.80;;;;;;5093507;28;20197;-72
2022/04/19 13:31:49;;;;;;;5.72;3.17;;;46.10;9.20;;;;;;5093512;28;20236;-71
2022/04/19 13:34:18;;;;;;;3.05;2.85;;;46.00;9.40;;;;;;5093496;28;20213;-71
2022/04/19 13:36:45;;;;;;;3.72;2.95;;;46.00;9.70;;;;;;5093238;28;20737;-72
2022/04/19 13:39:11;;;;;;;4.40;2.80;;;46.00;9.30;;;;;;5093483;28;20205;-72
2022/04/19 13:41:41;;;;;;;8.15;3.58;;;46.10;9.40;;;;;;5093322;28;20615;-72
2022/04/19 13:44:10;;;;;;;4.10;2.40;;;46.10;9.30;;;;;;5093504;28;20198;-72
2022/04/19 13:46:37;;;;;;;3.08;2.88;;;46.30;9.50;;;;;;5093628;28;20292;-72
2022/04/19 13:49:04;;;;;;;5.78;2.70;;;46.40;9.00;;;;;;5093206;28;20672;-72